sensor_id;sensor_type;location;lat;lon;timestamp;P1;durP1;ratioP1;P2;durP2;ratioP2
23142;SDS011;11740;51.168;4.112;2023-12-28T00:00:01;3.00;;;2.28;;
23142;SDS011;11740;51.168;4.112;2023-12-28T00:02:28;3.00;;;2.28;;
23142;SDS011;11740;51.168;4.112;2023-12-28T00:04:55;5.90;;;2.60;;
23142;SDS011;11740;51.168;4.112;2023-12-28T00:07:23;4.75;;;2.58;;
23142;SDS011;11740;51.168;4.112;2023-12-28T00:09:50;3.08;;;2.33;;
23142;SDS011;11740;51.168;4.112;2023-12-28T00:12:17;3.35;;;2.30;;
23142;SDS011;11740;51.168;4.112;2023-12-28T00:14:45;4.35;;;2.40;;
23142;SDS011;11740;51.168;4.112;2023-12-28T00:17:12;4.03;;;2.35;;
23142;SDS011;11740;51.168;4.112;2023-12-28T00:19:40;3.67;;;2.55;;
23142;SDS011;11740;51.168;4.112;2023-12-28T00:22:07;7.07;;;2.40;;
23142;SDS011;11740;51.168;4.112;2023-12-28T00:24:35;3.85;;;2.53;;
23142;SDS011;11740;51.168;4.112;2023-12-28T00:27:02;3.58;;;2.15;;
23142;SDS011;11740;51.168;4.112;2023-12-28T00:29:30;2.75;;;2.00;;
23142;SDS011;11740;51.168;4.112;2023-12-28T00:31:58;6.28;;;2.53;;
23142;SDS011;11740;51.168;4.112;2023-12-28T00:34:26;6.93;;;2.38;;
23142;SDS011;11740;51.168;4.112;2023-12-28T00:36:53;4.55;;;2.47;;
23142;SDS011;11740;51.168;4.112;2023-12-28T00:39:21;3.97;;;2.22;;
23142;SDS011;11740;51.168;4.112;2023-12-28T00:41:48;4.05;;;2.50;;
23142;SDS011;11740;51.168;4.112;2023-12-28T00:44:15;4.53;;;2.30;;
23142;SDS011;11740;51.168;4.112;2023-12-28T00:46:43;4.10;;;2.50;;
23142;SDS011;11740;51.168;4.112;2023-12-28T00:49:10;6.80;;;2.47;;
23142;SDS011;11740;51.168;4.112;2023-12-28T00:51:37;4.65;;;2.50;;
23142;SDS011;11740;51.168;4.112;2023-12-28T00:54:05;3.60;;;2.50;;
23142;SDS011;11740;51.168;4.112;2023-12-28T00:56:32;4.68;;;2.25;;
23142;SDS011;11740;51.168;4.112;2023-12-28T00:58:59;4.22;;;2.50;;
23142;SDS011;11740;51.168;4.112;2023-12-28T01:01:28;4.07;;;2.28;;
23142;SDS011;11740;51.168;4.112;2023-12-28T01:03:57;3.20;;;2.10;;
23142;SDS011;11740;51.168;4.112;2023-12-28T01:06:24;3.60;;;2.30;;
23142;SDS011;11740;51.168;4.112;2023-12-28T01:08:55;4.85;;;2.63;;
23142;SDS011;11740;51.168;4.112;2023-12-28T01:11:22;3.55;;;2.08;;
23142;SDS011;11740;51.168;4.112;2023-12-28T01:13:51;3.70;;;2.10;;
23142;SDS011;11740;51.168;4.112;2023-12-28T01:16:18;3.05;;;2.30;;
23142;SDS011;11740;51.168;4.112;2023-12-28T01:18:45;5.22;;;2.30;;
23142;SDS011;11740;51.168;4.112;2023-12-28T01:21:12;3.88;;;2.20;;
23142;SDS011;11740;51.168;4.112;2023-12-28T01:23:40;3.70;;;2.50;;
23142;SDS011;11740;51.168;4.112;2023-12-28T01:26:11;9.80;;;2.40;;
23142;SDS011;11740;51.168;4.112;2023-12-28T01:28:39;5.95;;;2.60;;
23142;SDS011;11740;51.168;4.112;2023-12-28T01:31:06;4.70;;;2.47;;
23142;SDS011;11740;51.168;4.112;2023-12-28T01:33:34;6.18;;;2.45;;
23142;SDS011;11740;51.168;4.112;2023-12-28T01:36:02;3.97;;;2.30;;
23142;SDS011;11740;51.168;4.112;2023-12-28T01:38:29;5.00;;;2.60;;
23142;SDS011;11740;51.168;4.112;2023-12-28T01:40:57;3.53;;;2.40;;
23142;SDS011;11740;51.168;4.112;2023-12-28T01:43:24;5.65;;;2.60;;
23142;SDS011;11740;51.168;4.112;2023-12-28T01:45:51;5.70;;;2.58;;
23142;SDS011;11740;51.168;4.112;2023-12-28T01:48:19;5.30;;;2.60;;
23142;SDS011;11740;51.168;4.112;2023-12-28T01:50:47;5.20;;;2.50;;
23142;SDS011;11740;51.168;4.112;2023-12-28T01:53:14;4.43;;;2.42;;
23142;SDS011;11740;51.168;4.112;2023-12-28T01:55:42;5.50;;;2.42;;
23142;SDS011;11740;51.168;4.112;2023-12-28T01:58:09;6.70;;;2.80;;
23142;SDS011;11740;51.168;4.112;2023-12-28T02:00:37;4.53;;;2.53;;
23142;SDS011;11740;51.168;4.112;2023-12-28T02:03:08;5.80;;;2.70;;
23142;SDS011;11740;51.168;4.112;2023-12-28T02:05:35;3.42;;;2.38;;
23142;SDS011;11740;51.168;4.112;2023-12-28T02:08:03;6.28;;;2.45;;
23142;SDS011;11740;51.168;4.112;2023-12-28T02:10:30;4.70;;;2.65;;
23142;SDS011;11740;51.168;4.112;2023-12-28T02:12:57;4.88;;;2.40;;
23142;SDS011;11740;51.168;4.112;2023-12-28T02:15:25;6.82;;;2.65;;
23142;SDS011;11740;51.168;4.112;2023-12-28T02:18:02;7.15;;;2.28;;
23142;SDS011;11740;51.168;4.112;2023-12-28T02:20:32;5.97;;;2.40;;
23142;SDS011;11740;51.168;4.112;2023-12-28T02:23:00;4.97;;;2.40;;
23142;SDS011;11740;51.168;4.112;2023-12-28T02:25:28;7.35;;;2.58;;
23142;SDS011;11740;51.168;4.112;2023-12-28T02:27:55;8.05;;;2.20;;
23142;SDS011;11740;51.168;4.112;2023-12-28T02:30:23;4.18;;;2.35;;
23142;SDS011;11740;51.168;4.112;2023-12-28T02:35:45;5.15;;;2.20;;
23142;SDS011;11740;51.168;4.112;2023-12-28T02:38:15;4.68;;;2.28;;
23142;SDS011;11740;51.168;4.112;2023-12-28T02:40:43;5.65;;;2.28;;
23142;SDS011;11740;51.168;4.112;2023-12-28T02:43:11;3.55;;;2.10;;
23142;SDS011;11740;51.168;4.112;2023-12-28T02:45:38;7.38;;;2.55;;
23142;SDS011;11740;51.168;4.112;2023-12-28T02:48:06;5.85;;;2.20;;
23142;SDS011;11740;51.168;4.112;2023-12-28T02:50:34;5.30;;;2.30;;
23142;SDS011;11740;51.168;4.112;2023-12-28T02:53:02;5.60;;;2.10;;
23142;SDS011;11740;51.168;4.112;2023-12-28T02:55:29;6.88;;;2.42;;
23142;SDS011;11740;51.168;4.112;2023-12-28T02:57:56;5.28;;;2.20;;
23142;SDS011;11740;51.168;4.112;2023-12-28T03:00:28;7.47;;;2.38;;
23142;SDS011;11740;51.168;4.112;2023-12-28T03:02:56;7.28;;;2.13;;
23142;SDS011;11740;51.168;4.112;2023-12-28T03:05:23;8.38;;;2.10;;
23142;SDS011;11740;51.168;4.112;2023-12-28T03:07:51;7.70;;;2.50;;
23142;SDS011;11740;51.168;4.112;2023-12-28T03:10:18;9.38;;;2.55;;
23142;SDS011;11740;51.168;4.112;2023-12-28T03:12:45;4.72;;;2.10;;
23142;SDS011;11740;51.168;4.112;2023-12-28T03:15:13;6.85;;;2.42;;
23142;SDS011;11740;51.168;4.112;2023-12-28T03:17:40;7.32;;;2.20;;
23142;SDS011;11740;51.168;4.112;2023-12-28T03:20:08;8.48;;;2.50;;
23142;SDS011;11740;51.168;4.112;2023-12-28T03:22:36;8.55;;;2.22;;
23142;SDS011;11740;51.168;4.112;2023-12-28T03:25:03;4.45;;;2.03;;
23142;SDS011;11740;51.168;4.112;2023-12-28T03:27:31;8.57;;;2.38;;
23142;SDS011;11740;51.168;4.112;2023-12-28T03:29:58;9.02;;;2.30;;
23142;SDS011;11740;51.168;4.112;2023-12-28T03:32:26;10.13;;;2.47;;
23142;SDS011;11740;51.168;4.112;2023-12-28T03:34:53;7.20;;;2.42;;
23142;SDS011;11740;51.168;4.112;2023-12-28T03:37:20;7.85;;;2.17;;
23142;SDS011;11740;51.168;4.112;2023-12-28T03:39:48;7.13;;;2.40;;
23142;SDS011;11740;51.168;4.112;2023-12-28T03:42:15;9.00;;;2.35;;
23142;SDS011;11740;51.168;4.112;2023-12-28T03:44:43;7.97;;;2.28;;
23142;SDS011;11740;51.168;4.112;2023-12-28T03:47:10;8.82;;;2.65;;
23142;SDS011;11740;51.168;4.112;2023-12-28T03:49:38;8.52;;;2.72;;
23142;SDS011;11740;51.168;4.112;2023-12-28T03:52:06;8.25;;;2.30;;
23142;SDS011;11740;51.168;4.112;2023-12-28T03:54:33;9.20;;;2.60;;
23142;SDS011;11740;51.168;4.112;2023-12-28T03:57:01;6.80;;;2.20;;
23142;SDS011;11740;51.168;4.112;2023-12-28T03:59:28;6.85;;;2.30;;
23142;SDS011;11740;51.168;4.112;2023-12-28T04:01:56;12.82;;;2.30;;
23142;SDS011;11740;51.168;4.112;2023-12-28T04:04:23;12.05;;;2.58;;
23142;SDS011;11740;51.168;4.112;2023-12-28T04:06:50;9.05;;;2.30;;
23142;SDS011;11740;51.168;4.112;2023-12-28T04:09:18;11.45;;;3.00;;
23142;SDS011;11740;51.168;4.112;2023-12-28T04:11:45;7.75;;;2.42;;
23142;SDS011;11740;51.168;4.112;2023-12-28T04:14:13;8.02;;;2.38;;
23142;SDS011;11740;51.168;4.112;2023-12-28T04:16:40;10.43;;;2.58;;
23142;SDS011;11740;51.168;4.112;2023-12-28T04:19:08;11.45;;;2.50;;
23142;SDS011;11740;51.168;4.112;2023-12-28T04:21:35;10.30;;;2.17;;
23142;SDS011;11740;51.168;4.112;2023-12-28T04:24:03;7.80;;;2.08;;
23142;SDS011;11740;51.168;4.112;2023-12-28T04:26:30;8.68;;;1.95;;
23142;SDS011;11740;51.168;4.112;2023-12-28T04:28:57;7.68;;;2.00;;
23142;SDS011;11740;51.168;4.112;2023-12-28T04:31:25;11.68;;;3.00;;
23142;SDS011;11740;51.168;4.112;2023-12-28T04:33:52;9.75;;;2.20;;
23142;SDS011;11740;51.168;4.112;2023-12-28T04:36:19;8.55;;;2.20;;
23142;SDS011;11740;51.168;4.112;2023-12-28T04:38:47;8.98;;;2.05;;
23142;SDS011;11740;51.168;4.112;2023-12-28T04:41:14;8.38;;;2.20;;
23142;SDS011;11740;51.168;4.112;2023-12-28T04:43:41;8.18;;;2.08;;
23142;SDS011;11740;51.168;4.112;2023-12-28T04:46:09;12.20;;;2.10;;
23142;SDS011;11740;51.168;4.112;2023-12-28T04:48:36;13.15;;;2.70;;
23142;SDS011;11740;51.168;4.112;2023-12-28T04:51:04;9.95;;;2.40;;
23142;SDS011;11740;51.168;4.112;2023-12-28T04:53:31;8.70;;;2.78;;
23142;SDS011;11740;51.168;4.112;2023-12-28T04:56:00;10.20;;;2.50;;
23142;SDS011;11740;51.168;4.112;2023-12-28T04:58:27;14.25;;;2.30;;
23142;SDS011;11740;51.168;4.112;2023-12-28T05:00:54;8.40;;;2.40;;
23142;SDS011;11740;51.168;4.112;2023-12-28T05:03:22;10.40;;;2.28;;
23142;SDS011;11740;51.168;4.112;2023-12-28T05:05:49;8.32;;;2.45;;
23142;SDS011;11740;51.168;4.112;2023-12-28T05:08:17;13.57;;;2.25;;
23142;SDS011;11740;51.168;4.112;2023-12-28T05:10:44;14.95;;;2.20;;
23142;SDS011;11740;51.168;4.112;2023-12-28T05:13:11;9.65;;;2.10;;
23142;SDS011;11740;51.168;4.112;2023-12-28T05:15:39;10.52;;;2.25;;
23142;SDS011;11740;51.168;4.112;2023-12-28T05:18:06;9.07;;;2.42;;
23142;SDS011;11740;51.168;4.112;2023-12-28T05:20:35;6.63;;;1.77;;
23142;SDS011;11740;51.168;4.112;2023-12-28T05:23:02;12.75;;;2.85;;
23142;SDS011;11740;51.168;4.112;2023-12-28T05:25:29;10.05;;;2.67;;
23142;SDS011;11740;51.168;4.112;2023-12-28T05:27:56;11.60;;;2.53;;
23142;SDS011;11740;51.168;4.112;2023-12-28T05:30:24;12.18;;;2.30;;
23142;SDS011;11740;51.168;4.112;2023-12-28T05:32:52;11.63;;;2.67;;
23142;SDS011;11740;51.168;4.112;2023-12-28T05:35:19;9.90;;;2.10;;
23142;SDS011;11740;51.168;4.112;2023-12-28T05:37:47;7.95;;;2.47;;
23142;SDS011;11740;51.168;4.112;2023-12-28T05:40:14;20.17;;;2.75;;
23142;SDS011;11740;51.168;4.112;2023-12-28T05:42:41;12.20;;;2.22;;
23142;SDS011;11740;51.168;4.112;2023-12-28T05:45:09;11.48;;;2.10;;
23142;SDS011;11740;51.168;4.112;2023-12-28T05:47:36;10.13;;;2.13;;
23142;SDS011;11740;51.168;4.112;2023-12-28T05:50:04;17.95;;;2.47;;
23142;SDS011;11740;51.168;4.112;2023-12-28T05:52:32;14.93;;;2.50;;
23142;SDS011;11740;51.168;4.112;2023-12-28T05:54:59;13.35;;;2.47;;
23142;SDS011;11740;51.168;4.112;2023-12-28T05:57:27;12.68;;;2.63;;
23142;SDS011;11740;51.168;4.112;2023-12-28T05:59:57;14.85;;;2.50;;
23142;SDS011;11740;51.168;4.112;2023-12-28T06:02:24;11.85;;;2.50;;
23142;SDS011;11740;51.168;4.112;2023-12-28T06:04:51;14.45;;;2.72;;
23142;SDS011;11740;51.168;4.112;2023-12-28T06:07:19;12.02;;;2.65;;
23142;SDS011;11740;51.168;4.112;2023-12-28T06:09:46;13.82;;;2.85;;
23142;SDS011;11740;51.168;4.112;2023-12-28T06:12:14;14.48;;;3.03;;
23142;SDS011;11740;51.168;4.112;2023-12-28T06:14:41;12.70;;;2.55;;
23142;SDS011;11740;51.168;4.112;2023-12-28T06:17:08;13.02;;;2.78;;
23142;SDS011;11740;51.168;4.112;2023-12-28T06:19:36;14.18;;;2.55;;
23142;SDS011;11740;51.168;4.112;2023-12-28T06:22:03;13.95;;;2.78;;
23142;SDS011;11740;51.168;4.112;2023-12-28T06:24:30;16.10;;;3.03;;
23142;SDS011;11740;51.168;4.112;2023-12-28T06:26:58;13.18;;;2.55;;
23142;SDS011;11740;51.168;4.112;2023-12-28T06:29:25;15.35;;;2.63;;
23142;SDS011;11740;51.168;4.112;2023-12-28T06:31:52;16.02;;;2.63;;
23142;SDS011;11740;51.168;4.112;2023-12-28T06:34:19;13.00;;;2.80;;
23142;SDS011;11740;51.168;4.112;2023-12-28T06:36:47;12.10;;;2.55;;
23142;SDS011;11740;51.168;4.112;2023-12-28T06:39:15;11.32;;;2.75;;
23142;SDS011;11740;51.168;4.112;2023-12-28T06:41:42;15.18;;;2.70;;
23142;SDS011;11740;51.168;4.112;2023-12-28T06:44:11;11.82;;;2.35;;
23142;SDS011;11740;51.168;4.112;2023-12-28T06:46:40;16.08;;;2.33;;
23142;SDS011;11740;51.168;4.112;2023-12-28T06:49:07;12.68;;;2.53;;
23142;SDS011;11740;51.168;4.112;2023-12-28T06:51:37;12.25;;;2.92;;
23142;SDS011;11740;51.168;4.112;2023-12-28T06:54:04;15.88;;;3.08;;
23142;SDS011;11740;51.168;4.112;2023-12-28T06:56:31;14.63;;;2.58;;
23142;SDS011;11740;51.168;4.112;2023-12-28T06:58:59;13.45;;;2.58;;
23142;SDS011;11740;51.168;4.112;2023-12-28T07:01:26;14.07;;;2.80;;
23142;SDS011;11740;51.168;4.112;2023-12-28T07:03:53;14.55;;;3.15;;
23142;SDS011;11740;51.168;4.112;2023-12-28T07:06:21;15.55;;;2.60;;
23142;SDS011;11740;51.168;4.112;2023-12-28T07:08:48;9.98;;;2.30;;
23142;SDS011;11740;51.168;4.112;2023-12-28T07:11:16;16.60;;;3.03;;
23142;SDS011;11740;51.168;4.112;2023-12-28T07:13:43;13.00;;;2.17;;
23142;SDS011;11740;51.168;4.112;2023-12-28T07:16:10;15.43;;;3.25;;
23142;SDS011;11740;51.168;4.112;2023-12-28T07:18:37;13.82;;;2.58;;
23142;SDS011;11740;51.168;4.112;2023-12-28T07:21:05;16.48;;;2.85;;
23142;SDS011;11740;51.168;4.112;2023-12-28T07:23:37;16.52;;;2.88;;
23142;SDS011;11740;51.168;4.112;2023-12-28T07:26:04;15.82;;;2.97;;
23142;SDS011;11740;51.168;4.112;2023-12-28T07:28:32;20.42;;;3.50;;
23142;SDS011;11740;51.168;4.112;2023-12-28T07:31:00;19.90;;;3.10;;
23142;SDS011;11740;51.168;4.112;2023-12-28T07:33:27;14.88;;;3.08;;
23142;SDS011;11740;51.168;4.112;2023-12-28T07:35:55;20.15;;;3.08;;
23142;SDS011;11740;51.168;4.112;2023-12-28T07:38:22;17.83;;;3.17;;
23142;SDS011;11740;51.168;4.112;2023-12-28T07:40:49;16.02;;;2.55;;
23142;SDS011;11740;51.168;4.112;2023-12-28T07:43:16;14.25;;;2.97;;
23142;SDS011;11740;51.168;4.112;2023-12-28T07:45:44;16.50;;;2.67;;
23142;SDS011;11740;51.168;4.112;2023-12-28T07:48:11;15.52;;;2.85;;
23142;SDS011;11740;51.168;4.112;2023-12-28T07:50:39;16.40;;;2.97;;
23142;SDS011;11740;51.168;4.112;2023-12-28T07:53:06;22.10;;;3.22;;
23142;SDS011;11740;51.168;4.112;2023-12-28T07:55:33;15.18;;;2.78;;
23142;SDS011;11740;51.168;4.112;2023-12-28T07:58:00;15.85;;;2.55;;
23142;SDS011;11740;51.168;4.112;2023-12-28T08:00:28;14.98;;;2.65;;
23142;SDS011;11740;51.168;4.112;2023-12-28T08:02:56;14.15;;;3.25;;
23142;SDS011;11740;51.168;4.112;2023-12-28T08:05:23;17.52;;;3.15;;
23142;SDS011;11740;51.168;4.112;2023-12-28T08:07:50;13.30;;;2.65;;
23142;SDS011;11740;51.168;4.112;2023-12-28T08:10:17;14.00;;;3.10;;
23142;SDS011;11740;51.168;4.112;2023-12-28T08:12:45;11.25;;;2.13;;
23142;SDS011;11740;51.168;4.112;2023-12-28T08:15:12;16.75;;;2.92;;
23142;SDS011;11740;51.168;4.112;2023-12-28T08:17:39;15.68;;;2.67;;
23142;SDS011;11740;51.168;4.112;2023-12-28T08:20:07;18.58;;;3.45;;
23142;SDS011;11740;51.168;4.112;2023-12-28T08:22:34;20.23;;;2.75;;
23142;SDS011;11740;51.168;4.112;2023-12-28T08:25:02;16.75;;;3.33;;
23142;SDS011;11740;51.168;4.112;2023-12-28T08:27:29;13.80;;;2.58;;
23142;SDS011;11740;51.168;4.112;2023-12-28T08:29:56;17.58;;;3.38;;
23142;SDS011;11740;51.168;4.112;2023-12-28T08:32:24;19.50;;;2.90;;
23142;SDS011;11740;51.168;4.112;2023-12-28T08:34:51;15.02;;;2.97;;
23142;SDS011;11740;51.168;4.112;2023-12-28T08:37:19;15.05;;;2.88;;
23142;SDS011;11740;51.168;4.112;2023-12-28T08:39:46;15.65;;;2.60;;
23142;SDS011;11740;51.168;4.112;2023-12-28T08:42:13;15.02;;;3.45;;
23142;SDS011;11740;51.168;4.112;2023-12-28T08:44:41;15.77;;;3.17;;
23142;SDS011;11740;51.168;4.112;2023-12-28T08:47:08;14.85;;;2.97;;
23142;SDS011;11740;51.168;4.112;2023-12-28T08:49:37;16.30;;;2.97;;
23142;SDS011;11740;51.168;4.112;2023-12-28T08:52:04;17.75;;;3.30;;
23142;SDS011;11740;51.168;4.112;2023-12-28T08:54:31;17.95;;;2.85;;
23142;SDS011;11740;51.168;4.112;2023-12-28T08:56:59;19.08;;;3.00;;
23142;SDS011;11740;51.168;4.112;2023-12-28T08:59:26;19.00;;;3.30;;
23142;SDS011;11740;51.168;4.112;2023-12-28T09:01:54;18.13;;;2.97;;
23142;SDS011;11740;51.168;4.112;2023-12-28T09:04:21;13.77;;;2.70;;
23142;SDS011;11740;51.168;4.112;2023-12-28T09:06:49;16.17;;;3.28;;
23142;SDS011;11740;51.168;4.112;2023-12-28T09:09:16;17.48;;;3.05;;
23142;SDS011;11740;51.168;4.112;2023-12-28T09:11:43;21.00;;;3.80;;
23142;SDS011;11740;51.168;4.112;2023-12-28T09:14:11;18.25;;;2.83;;
23142;SDS011;11740;51.168;4.112;2023-12-28T09:16:38;27.35;;;3.80;;
23142;SDS011;11740;51.168;4.112;2023-12-28T09:19:07;21.95;;;3.42;;
23142;SDS011;11740;51.168;4.112;2023-12-28T09:21:34;24.25;;;3.95;;
23142;SDS011;11740;51.168;4.112;2023-12-28T09:24:02;19.92;;;3.20;;
23142;SDS011;11740;51.168;4.112;2023-12-28T09:26:29;19.42;;;3.28;;
23142;SDS011;11740;51.168;4.112;2023-12-28T09:28:59;21.58;;;3.00;;
23142;SDS011;11740;51.168;4.112;2023-12-28T09:31:26;18.95;;;3.70;;
23142;SDS011;11740;51.168;4.112;2023-12-28T09:33:53;13.45;;;2.53;;
23142;SDS011;11740;51.168;4.112;2023-12-28T09:36:21;19.35;;;3.00;;
23142;SDS011;11740;51.168;4.112;2023-12-28T09:38:48;24.95;;;3.58;;
23142;SDS011;11740;51.168;4.112;2023-12-28T09:41:18;18.75;;;3.30;;
23142;SDS011;11740;51.168;4.112;2023-12-28T09:43:58;20.42;;;3.45;;
23142;SDS011;11740;51.168;4.112;2023-12-28T09:46:25;22.13;;;2.97;;
23142;SDS011;11740;51.168;4.112;2023-12-28T09:48:55;17.60;;;3.17;;
23142;SDS011;11740;51.168;4.112;2023-12-28T09:51:23;20.80;;;3.15;;
23142;SDS011;11740;51.168;4.112;2023-12-28T09:53:52;15.15;;;2.97;;
23142;SDS011;11740;51.168;4.112;2023-12-28T09:56:19;22.83;;;3.47;;
23142;SDS011;11740;51.168;4.112;2023-12-28T09:58:47;19.52;;;3.13;;
23142;SDS011;11740;51.168;4.112;2023-12-28T10:01:17;20.55;;;3.35;;
23142;SDS011;11740;51.168;4.112;2023-12-28T10:03:45;20.17;;;2.80;;
23142;SDS011;11740;51.168;4.112;2023-12-28T10:06:13;16.23;;;3.15;;
23142;SDS011;11740;51.168;4.112;2023-12-28T10:08:45;18.17;;;3.45;;
23142;SDS011;11740;51.168;4.112;2023-12-28T10:11:15;21.67;;;3.92;;
23142;SDS011;11740;51.168;4.112;2023-12-28T10:13:42;21.17;;;3.13;;
23142;SDS011;11740;51.168;4.112;2023-12-28T10:16:12;18.42;;;2.90;;
23142;SDS011;11740;51.168;4.112;2023-12-28T10:18:43;21.48;;;3.67;;
23142;SDS011;11740;51.168;4.112;2023-12-28T10:21:11;14.75;;;2.72;;
23142;SDS011;11740;51.168;4.112;2023-12-28T10:23:39;24.55;;;3.65;;
23142;SDS011;11740;51.168;4.112;2023-12-28T10:26:06;18.00;;;3.55;;
23142;SDS011;11740;51.168;4.112;2023-12-28T10:28:35;22.05;;;3.45;;
23142;SDS011;11740;51.168;4.112;2023-12-28T10:31:07;20.52;;;3.53;;
23142;SDS011;11740;51.168;4.112;2023-12-28T10:33:35;18.67;;;3.50;;
23142;SDS011;11740;51.168;4.112;2023-12-28T10:36:07;20.50;;;3.85;;
23142;SDS011;11740;51.168;4.112;2023-12-28T10:38:37;16.10;;;3.30;;
23142;SDS011;11740;51.168;4.112;2023-12-28T10:41:08;25.90;;;3.67;;
23142;SDS011;11740;51.168;4.112;2023-12-28T10:46:24;17.20;;;3.42;;
23142;SDS011;11740;51.168;4.112;2023-12-28T10:48:57;24.88;;;3.72;;
23142;SDS011;11740;51.168;4.112;2023-12-28T10:51:25;18.30;;;3.55;;
23142;SDS011;11740;51.168;4.112;2023-12-28T10:54:04;23.52;;;3.40;;
23142;SDS011;11740;51.168;4.112;2023-12-28T10:56:35;21.10;;;3.60;;
23142;SDS011;11740;51.168;4.112;2023-12-28T10:59:14;20.08;;;3.13;;
23142;SDS011;11740;51.168;4.112;2023-12-28T11:01:44;19.13;;;3.08;;
23142;SDS011;11740;51.168;4.112;2023-12-28T11:07:00;21.00;;;3.45;;
23142;SDS011;11740;51.168;4.112;2023-12-28T11:09:30;18.08;;;3.38;;
23142;SDS011;11740;51.168;4.112;2023-12-28T11:11:58;18.67;;;3.65;;
23142;SDS011;11740;51.168;4.112;2023-12-28T11:14:27;19.38;;;3.50;;
23142;SDS011;11740;51.168;4.112;2023-12-28T11:16:54;16.73;;;3.00;;
23142;SDS011;11740;51.168;4.112;2023-12-28T11:19:22;16.75;;;3.10;;
23142;SDS011;11740;51.168;4.112;2023-12-28T11:21:50;21.08;;;3.60;;
23142;SDS011;11740;51.168;4.112;2023-12-28T11:24:18;20.83;;;3.15;;
23142;SDS011;11740;51.168;4.112;2023-12-28T11:26:51;21.27;;;3.45;;
23142;SDS011;11740;51.168;4.112;2023-12-28T11:29:21;19.85;;;3.83;;
23142;SDS011;11740;51.168;4.112;2023-12-28T11:31:51;24.33;;;3.42;;
23142;SDS011;11740;51.168;4.112;2023-12-28T11:34:19;25.92;;;3.58;;
23142;SDS011;11740;51.168;4.112;2023-12-28T11:36:48;16.63;;;2.83;;
23142;SDS011;11740;51.168;4.112;2023-12-28T11:41:48;25.20;;;3.97;;
23142;SDS011;11740;51.168;4.112;2023-12-28T11:44:16;21.35;;;3.38;;
23142;SDS011;11740;51.168;4.112;2023-12-28T11:46:43;23.35;;;3.42;;
23142;SDS011;11740;51.168;4.112;2023-12-28T11:49:11;15.93;;;3.13;;
23142;SDS011;11740;51.168;4.112;2023-12-28T11:51:38;14.80;;;3.45;;
23142;SDS011;11740;51.168;4.112;2023-12-28T11:54:06;21.35;;;3.03;;
23142;SDS011;11740;51.168;4.112;2023-12-28T11:56:34;22.17;;;3.30;;
23142;SDS011;11740;51.168;4.112;2023-12-28T11:59:01;24.88;;;3.65;;
23142;SDS011;11740;51.168;4.112;2023-12-28T12:01:28;19.73;;;3.53;;
23142;SDS011;11740;51.168;4.112;2023-12-28T12:03:56;13.02;;;3.13;;
23142;SDS011;11740;51.168;4.112;2023-12-28T12:06:24;23.85;;;3.28;;
23142;SDS011;11740;51.168;4.112;2023-12-28T12:08:51;18.35;;;4.03;;
23142;SDS011;11740;51.168;4.112;2023-12-28T12:11:19;25.20;;;4.40;;
23142;SDS011;11740;51.168;4.112;2023-12-28T12:13:46;24.85;;;4.28;;
23142;SDS011;11740;51.168;4.112;2023-12-28T12:16:13;19.05;;;2.88;;
23142;SDS011;11740;51.168;4.112;2023-12-28T12:18:41;23.95;;;3.72;;
23142;SDS011;11740;51.168;4.112;2023-12-28T12:21:08;20.65;;;3.30;;
23142;SDS011;11740;51.168;4.112;2023-12-28T12:23:37;18.15;;;3.15;;
23142;SDS011;11740;51.168;4.112;2023-12-28T12:26:04;21.58;;;3.53;;
23142;SDS011;11740;51.168;4.112;2023-12-28T12:28:32;17.55;;;3.35;;
23142;SDS011;11740;51.168;4.112;2023-12-28T12:31:00;19.13;;;3.78;;
23142;SDS011;11740;51.168;4.112;2023-12-28T12:33:28;22.77;;;3.67;;
23142;SDS011;11740;51.168;4.112;2023-12-28T12:35:56;23.15;;;3.50;;
23142;SDS011;11740;51.168;4.112;2023-12-28T12:38:23;22.45;;;3.83;;
23142;SDS011;11740;51.168;4.112;2023-12-28T12:40:51;21.35;;;3.05;;
23142;SDS011;11740;51.168;4.112;2023-12-28T12:43:19;20.42;;;3.47;;
23142;SDS011;11740;51.168;4.112;2023-12-28T12:45:46;18.75;;;3.38;;
23142;SDS011;11740;51.168;4.112;2023-12-28T12:48:15;20.15;;;3.70;;
23142;SDS011;11740;51.168;4.112;2023-12-28T12:50:43;22.73;;;3.72;;
23142;SDS011;11740;51.168;4.112;2023-12-28T12:53:10;20.20;;;3.15;;
23142;SDS011;11740;51.168;4.112;2023-12-28T12:55:38;18.15;;;3.53;;
23142;SDS011;11740;51.168;4.112;2023-12-28T12:58:05;22.25;;;3.47;;
23142;SDS011;11740;51.168;4.112;2023-12-28T13:00:33;22.50;;;3.83;;
23142;SDS011;11740;51.168;4.112;2023-12-28T13:03:01;24.15;;;3.70;;
23142;SDS011;11740;51.168;4.112;2023-12-28T13:05:29;24.27;;;3.70;;
23142;SDS011;11740;51.168;4.112;2023-12-28T13:07:57;18.08;;;3.22;;
23142;SDS011;11740;51.168;4.112;2023-12-28T13:10:24;20.95;;;3.75;;
23142;SDS011;11740;51.168;4.112;2023-12-28T13:12:52;17.70;;;3.40;;
23142;SDS011;11740;51.168;4.112;2023-12-28T13:15:19;20.10;;;3.40;;
23142;SDS011;11740;51.168;4.112;2023-12-28T13:17:47;19.15;;;3.53;;
23142;SDS011;11740;51.168;4.112;2023-12-28T13:20:14;23.75;;;3.72;;
23142;SDS011;11740;51.168;4.112;2023-12-28T13:22:41;15.13;;;2.80;;
23142;SDS011;11740;51.168;4.112;2023-12-28T13:25:09;27.75;;;4.00;;
23142;SDS011;11740;51.168;4.112;2023-12-28T13:27:37;19.00;;;3.70;;
23142;SDS011;11740;51.168;4.112;2023-12-28T13:30:04;24.08;;;3.45;;
23142;SDS011;11740;51.168;4.112;2023-12-28T13:32:32;18.13;;;3.20;;
23142;SDS011;11740;51.168;4.112;2023-12-28T13:35:00;25.95;;;3.80;;
23142;SDS011;11740;51.168;4.112;2023-12-28T13:37:29;18.92;;;3.42;;
23142;SDS011;11740;51.168;4.112;2023-12-28T13:39:56;17.88;;;3.10;;
23142;SDS011;11740;51.168;4.112;2023-12-28T13:42:23;16.98;;;3.67;;
23142;SDS011;11740;51.168;4.112;2023-12-28T13:44:51;18.05;;;3.15;;
23142;SDS011;11740;51.168;4.112;2023-12-28T13:47:18;17.88;;;3.85;;
23142;SDS011;11740;51.168;4.112;2023-12-28T13:49:45;22.02;;;3.83;;
23142;SDS011;11740;51.168;4.112;2023-12-28T13:52:14;20.23;;;3.85;;
23142;SDS011;11740;51.168;4.112;2023-12-28T13:54:41;19.48;;;2.95;;
23142;SDS011;11740;51.168;4.112;2023-12-28T13:57:08;18.00;;;2.95;;
23142;SDS011;11740;51.168;4.112;2023-12-28T13:59:36;16.60;;;3.38;;
23142;SDS011;11740;51.168;4.112;2023-12-28T14:02:03;20.30;;;3.78;;
23142;SDS011;11740;51.168;4.112;2023-12-28T14:04:30;21.52;;;3.55;;
23142;SDS011;11740;51.168;4.112;2023-12-28T14:06:58;20.25;;;2.90;;
23142;SDS011;11740;51.168;4.112;2023-12-28T14:09:25;18.35;;;3.20;;
23142;SDS011;11740;51.168;4.112;2023-12-28T14:11:52;20.95;;;3.72;;
23142;SDS011;11740;51.168;4.112;2023-12-28T14:14:20;19.67;;;3.20;;
23142;SDS011;11740;51.168;4.112;2023-12-28T14:16:47;15.50;;;2.75;;
23142;SDS011;11740;51.168;4.112;2023-12-28T14:19:14;20.88;;;3.20;;
23142;SDS011;11740;51.168;4.112;2023-12-28T14:21:42;20.92;;;3.65;;
23142;SDS011;11740;51.168;4.112;2023-12-28T14:24:09;16.00;;;3.42;;
23142;SDS011;11740;51.168;4.112;2023-12-28T14:26:40;19.52;;;3.65;;
23142;SDS011;11740;51.168;4.112;2023-12-28T14:29:10;22.98;;;3.17;;
23142;SDS011;11740;51.168;4.112;2023-12-28T14:31:38;20.77;;;3.10;;
23142;SDS011;11740;51.168;4.112;2023-12-28T14:34:05;17.85;;;3.50;;
23142;SDS011;11740;51.168;4.112;2023-12-28T14:36:36;16.83;;;3.55;;
23142;SDS011;11740;51.168;4.112;2023-12-28T14:39:05;24.45;;;3.35;;
23142;SDS011;11740;51.168;4.112;2023-12-28T14:41:35;16.75;;;3.05;;
23142;SDS011;11740;51.168;4.112;2023-12-28T14:44:06;15.25;;;3.03;;
23142;SDS011;11740;51.168;4.112;2023-12-28T14:46:34;17.27;;;3.10;;
23142;SDS011;11740;51.168;4.112;2023-12-28T14:49:01;18.50;;;3.42;;
23142;SDS011;11740;51.168;4.112;2023-12-28T14:51:29;16.73;;;3.42;;